Time;durP1;ratioP1;P1;durP2;ratioP2;P2;SDS_P1;SDS_P2;PMS_P1;PMS_P2;Temp;Humidity;BMP_temperature;BMP_pressure;BME280_temperature;BME280_humidity;BME280_pressure;Samples;Min_cycle;Max_cycle;Signal;HPM_P1;HPM_P2
2023/03/10 00:01:36;;;;;;;;;;;;;;;6.89;94.15;95133.02;109077;1273;22488;-81
2023/03/10 00:04:05;;;;;;;;;;;;;;;6.83;94.00;95142.80;109087;1274;22510;-81
2023/03/10 00:06:36;;;;;;;;;;;;;;;6.79;93.99;95141.94;109100;1273;22493;-81
2023/03/10 00:09:06;;;;;;;;;;;;;;;6.77;94.17;95143.49;109083;1273;22439;-81
2023/03/10 00:11:36;;;;;;;;;;;;;;;6.79;94.15;95145.10;109079;1273;22534;-81
2023/03/10 00:14:05;;;;;;;;;;;;;;;6.83;94.02;95148.77;109041;1273;25387;-81
2023/03/10 00:16:35;;;;;;;;;;;;;;;6.91;93.93;95146.98;109099;1273;22548;-81
2023/03/10 00:19:04;;;;;;;;;;;;;;;6.95;93.75;95142.29;109070;1273;22581;-81
2023/03/10 00:21:35;;;;;;;;;;;;;;;7.00;93.58;95135.70;109055;1269;22498;-81
2023/03/10 00:24:04;;;;;;;;;;;;;;;7.02;93.41;95133.55;109057;1266;22454;-81
2023/03/10 00:26:33;;;;;;;;;;;;;;;7.03;93.29;95135.34;109100;1273;22540;-80
2023/03/10 00:29:03;;;;;;;;;;;;;;;7.07;92.96;95129.49;109028;1270;22545;-81
2023/03/10 00:31:34;;;;;;;;;;;;;;;7.10;92.88;95133.77;109051;1264;22509;-81
2023/03/10 00:34:03;;;;;;;;;;;;;;;7.13;92.71;95135.10;109070;1266;23775;-80
2023/03/10 00:36:33;;;;;;;;;;;;;;;7.17;92.57;95125.23;109088;1255;22627;-80
2023/03/10 00:39:04;;;;;;;;;;;;;;;7.22;92.40;95122.98;109093;1272;22483;-80
2023/03/10 00:41:35;;;;;;;;;;;;;;;7.26;92.11;95118.36;109119;1271;23791;-80
2023/03/10 00:44:05;;;;;;;;;;;;;;;7.31;91.75;95114.35;108996;1273;25392;-80
2023/03/10 00:46:37;;;;;;;;;;;;;;;7.32;91.51;95103.11;109089;1269;22517;-80
2023/03/10 00:49:07;;;;;;;;;;;;;;;7.28;91.05;95100.08;109056;1273;25243;-80
2023/03/10 00:51:36;;;;;;;;;;;;;;;7.31;90.78;95094.42;109049;1273;23177;-80
2023/03/10 00:54:06;;;;;;;;;;;;;;;7.30;90.59;95098.20;109060;1272;22496;-81
2023/03/10 00:56:35;;;;;;;;;;;;;;;7.32;90.32;95091.67;109084;1272;22491;-80
2023/03/10 00:59:05;;;;;;;;;;;;;;;7.35;90.02;95089.94;109076;1269;22493;-81
2023/03/10 01:01:36;;;;;;;;;;;;;;;7.35;89.89;95090.09;109113;1272;22896;-80
2023/03/10 01:04:07;;;;;;;;;;;;;;;7.33;89.71;95091.40;109097;1273;24282;-81
2023/03/10 01:06:36;;;;;;;;;;;;;;;7.37;89.35;95078.14;109064;1266;22469;-80
2023/03/10 01:09:06;;;;;;;;;;;;;;;7.37;89.03;95073.33;109072;1269;22577;-81
2023/03/10 01:11:39;;;;;;;;;;;;;;;7.40;88.79;95074.00;109062;1273;22940;-80
2023/03/10 01:14:09;;;;;;;;;;;;;;;7.44;88.40;95065.95;109104;1272;23700;-80
2023/03/10 01:16:39;;;;;;;;;;;;;;;7.40;88.31;95066.56;109103;1273;22497;-80
2023/03/10 01:19:08;;;;;;;;;;;;;;;7.36;88.20;95058.60;109095;1266;22529;-80
2023/03/10 01:21:38;;;;;;;;;;;;;;;7.37;88.30;95059.31;109116;1269;23225;-81
2023/03/10 01:24:11;;;;;;;;;;;;;;;7.36;88.19;95055.70;109041;1266;22514;-80
2023/03/10 01:26:40;;;;;;;;;;;;;;;7.36;87.84;95053.27;109117;1270;22547;-80
2023/03/10 01:29:10;;;;;;;;;;;;;;;7.43;87.48;95041.93;109054;1273;22493;-81
2023/03/10 01:31:40;;;;;;;;;;;;;;;7.52;87.17;95041.65;109108;1266;22501;-80
2023/03/10 01:34:09;;;;;;;;;;;;;;;7.55;86.79;95035.98;109035;1262;79435;-80
2023/03/10 01:36:40;;;;;;;;;;;;;;;7.58;86.37;95038.13;109059;1273;25944;-80
2023/03/10 01:39:10;;;;;;;;;;;;;;;7.57;86.13;95037.84;109102;1271;22503;-80
2023/03/10 01:41:40;;;;;;;;;;;;;;;7.58;85.88;95034.12;109079;1274;22492;-80
2023/03/10 01:44:14;;;;;;;;;;;;;;;7.60;85.73;95025.96;109038;1271;25924;-80
2023/03/10 01:46:45;;;;;;;;;;;;;;;7.57;85.53;95023.28;109148;1274;22624;-80
2023/03/10 01:49:23;;;;;;;;;;;;;;;7.54;85.38;95022.77;109086;1273;23665;-80
2023/03/10 01:51:54;;;;;;;;;;;;;;;7.60;84.95;95020.96;109062;1273;22466;-80
2023/03/10 01:54:26;;;;;;;;;;;;;;;7.63;84.50;95019.73;109084;1268;25070;-80
2023/03/10 01:56:56;;;;;;;;;;;;;;;7.67;84.18;95013.10;109090;1266;25214;-80
2023/03/10 01:59:26;;;;;;;;;;;;;;;7.68;83.94;95016.70;109100;1274;25395;-80
2023/03/10 02:01:56;;;;;;;;;;;;;;;7.60;83.84;95020.90;109084;1271;22448;-80
2023/03/10 02:04:30;;;;;;;;;;;;;;;7.56;84.12;95021.48;109058;1270;25396;-80
2023/03/10 02:06:59;;;;;;;;;;;;;;;7.48;84.24;95021.80;109044;1274;22495;-80
2023/03/10 02:09:32;;;;;;;;;;;;;;;7.49;84.27;95021.05;109107;1274;22896;-80
2023/03/10 02:12:02;;;;;;;;;;;;;;;7.46;84.28;95025.58;109090;1271;24212;-80
2023/03/10 02:14:34;;;;;;;;;;;;;;;7.39;84.23;95026.94;109055;1274;22558;-80
2023/03/10 02:17:04;;;;;;;;;;;;;;;7.39;84.40;95019.99;109107;1273;23006;-80
2023/03/10 02:19:47;;;;;;;;;;;;;;;7.36;84.32;95024.07;109059;1273;22542;-80
2023/03/10 02:22:16;;;;;;;;;;;;;;;7.27;84.60;95021.86;109063;1273;22502;-80
2023/03/10 02:24:49;;;;;;;;;;;;;;;7.24;84.55;95013.93;109026;1272;65566;-80
2023/03/10 02:27:21;;;;;;;;;;;;;;;7.20;84.70;95011.86;109091;1274;22501;-81
2023/03/10 02:29:52;;;;;;;;;;;;;;;7.20;84.78;95002.90;109050;1273;22462;-80
2023/03/10 02:32:22;;;;;;;;;;;;;;;7.17;84.73;95014.31;109082;1274;22516;-80
2023/03/10 02:34:51;;;;;;;;;;;;;;;7.16;84.90;95010.50;109002;1273;22508;-80
2023/03/10 02:37:25;;;;;;;;;;;;;;;7.05;84.91;95007.14;109019;1265;25920;-80
2023/03/10 02:39:54;;;;;;;;;;;;;;;6.96;85.02;95001.96;109094;1266;22541;-80
2023/03/10 02:42:25;;;;;;;;;;;;;;;6.92;85.37;95003.35;109097;1273;22494;-80
2023/03/10 02:44:54;;;;;;;;;;;;;;;6.88;85.44;95008.63;109044;1274;23121;-80
2023/03/10 02:47:24;;;;;;;;;;;;;;;6.86;85.55;95006.52;109154;1273;23149;-80
2023/03/10 02:49:54;;;;;;;;;;;;;;;6.84;85.84;95007.77;109142;1274;22548;-80
2023/03/10 02:52:27;;;;;;;;;;;;;;;6.85;85.91;95005.53;109107;1273;23248;-80
2023/03/10 02:54:57;;;;;;;;;;;;;;;6.91;85.99;95000.48;109123;1273;22511;-80
2023/03/10 02:57:26;;;;;;;;;;;;;;;6.90;85.94;94997.85;109126;1274;23783;-80
2023/03/10 02:59:56;;;;;;;;;;;;;;;6.90;85.92;95000.48;109150;1273;22912;-81
2023/03/10 03:02:25;;;;;;;;;;;;;;;6.88;85.95;94998.24;109143;1272;25242;-80
2023/03/10 03:04:55;;;;;;;;;;;;;;;6.85;85.73;94993.72;109088;1273;22433;-81
2023/03/10 03:07:25;;;;;;;;;;;;;;;6.85;86.09;94999.52;109007;1269;146877;-80
2023/03/10 03:09:57;;;;;;;;;;;;;;;6.89;86.03;95002.71;109073;1272;22503;-80
2023/03/10 03:12:26;;;;;;;;;;;;;;;6.87;85.82;94991.78;109105;1273;22538;-80
2023/03/10 03:14:55;;;;;;;;;;;;;;;6.88;85.91;94989.98;109093;1274;22511;-80
2023/03/10 03:17:26;;;;;;;;;;;;;;;6.86;85.91;94988.50;109131;1274;22556;-81
2023/03/10 03:19:56;;;;;;;;;;;;;;;6.83;85.79;94989.02;109110;1274;22628;-81
2023/03/10 03:22:26;;;;;;;;;;;;;;;6.84;85.94;94983.52;109100;1273;22485;-80
2023/03/10 03:24:55;;;;;;;;;;;;;;;6.86;85.99;94987.91;109103;1274;24346;-80
2023/03/10 03:27:25;;;;;;;;;;;;;;;6.89;86.00;94988.86;109096;1274;22505;-80
2023/03/10 03:29:54;;;;;;;;;;;;;;;6.95;85.75;94991.60;109117;1273;22486;-81
2023/03/10 03:32:24;;;;;;;;;;;;;;;6.97;85.62;94986.13;109112;1274;22489;-80
2023/03/10 03:34:53;;;;;;;;;;;;;;;7.02;85.51;94987.64;109023;1274;23146;-81
2023/03/10 03:37:22;;;;;;;;;;;;;;;7.04;85.28;94985.94;109085;1272;22536;-81
2023/03/10 03:39:52;;;;;;;;;;;;;;;7.03;85.24;94981.14;109116;1272;22484;-81
2023/03/10 03:42:22;;;;;;;;;;;;;;;7.02;85.16;94979.27;109111;1274;24256;-81
2023/03/10 03:44:51;;;;;;;;;;;;;;;6.96;85.29;94972.70;109047;1272;24225;-81
2023/03/10 03:47:20;;;;;;;;;;;;;;;6.92;85.12;94967.68;109092;1272;22544;-81
2023/03/10 03:49:50;;;;;;;;;;;;;;;6.86;85.20;94968.22;109074;1266;22499;-81
2023/03/10 03:52:19;;;;;;;;;;;;;;;6.79;85.40;94961.05;109069;1274;22519;-81
2023/03/10 03:54:49;;;;;;;;;;;;;;;6.77;85.56;94950.77;109070;1274;25443;-81
2023/03/10 03:57:19;;;;;;;;;;;;;;;6.77;85.59;94950.61;109080;1273;22496;-81
2023/03/10 03:59:48;;;;;;;;;;;;;;;6.71;85.48;94945.55;109083;1273;22436;-81
2023/03/10 04:02:18;;;;;;;;;;;;;;;6.67;85.88;94946.96;109098;1266;22633;-81
2023/03/10 04:04:48;;;;;;;;;;;;;;;6.68;86.02;94945.14;109044;1274;67839;-81
2023/03/10 04:07:17;;;;;;;;;;;;;;;6.67;85.79;94947.38;109095;1266;22516;-81
2023/03/10 04:09:47;;;;;;;;;;;;;;;6.67;85.97;94940.90;109119;1274;22509;-81
2023/03/10 04:12:16;;;;;;;;;;;;;;;6.68;86.01;94935.61;109099;1273;22560;-81
2023/03/10 04:14:45;;;;;;;;;;;;;;;6.66;85.89;94940.92;109063;1274;22507;-81
2023/03/10 04:17:15;;;;;;;;;;;;;;;6.66;86.04;94933.66;109080;1273;22482;-81
2023/03/10 04:19:45;;;;;;;;;;;;;;;6.63;86.02;94928.72;109083;1274;22497;-81
2023/03/10 04:22:14;;;;;;;;;;;;;;;6.64;86.01;94927.23;109080;1273;25341;-81
2023/03/10 04:24:43;;;;;;;;;;;;;;;6.68;86.07;94917.86;109075;1272;22503;-81
2023/03/10 04:27:13;;;;;;;;;;;;;;;6.72;85.88;94917.20;109140;1274;22493;-81
2023/03/10 04:29:43;;;;;;;;;;;;;;;6.68;85.62;94909.27;109076;1274;25923;-81
2023/03/10 04:32:12;;;;;;;;;;;;;;;6.63;85.73;94909.52;109114;1269;22627;-81
2023/03/10 04:34:41;;;;;;;;;;;;;;;6.65;85.91;94902.65;109013;1270;39538;-82
2023/03/10 04:37:10;;;;;;;;;;;;;;;6.68;85.66;94901.22;109109;1273;23895;-81
2023/03/10 04:39:40;;;;;;;;;;;;;;;6.70;85.60;94898.60;109047;1269;25002;-81
2023/03/10 04:42:09;;;;;;;;;;;;;;;6.72;85.55;94893.82;109068;1274;22806;-81
2023/03/10 04:44:39;;;;;;;;;;;;;;;6.78;85.29;94884.63;109024;1275;23531;-81
2023/03/10 04:47:08;;;;;;;;;;;;;;;6.85;85.13;94886.16;109039;1273;24203;-81
2023/03/10 04:49:38;;;;;;;;;;;;;;;6.83;84.67;94885.48;109127;1274;23164;-80
2023/03/10 04:52:07;;;;;;;;;;;;;;;6.75;84.61;94883.44;109075;1274;22790;-81
2023/03/10 04:54:37;;;;;;;;;;;;;;;6.70;84.71;94882.00;109044;1272;22500;-81
2023/03/10 04:57:06;;;;;;;;;;;;;;;6.71;84.77;94881.94;109085;1270;22495;-81
2023/03/10 04:59:36;;;;;;;;;;;;;;;6.76;84.89;94882.73;109102;1274;22501;-81
2023/03/10 05:02:06;;;;;;;;;;;;;;;6.76;84.60;94879.95;109093;1273;23524;-81
2023/03/10 05:04:35;;;;;;;;;;;;;;;6.77;84.42;94875.83;109045;1272;40574;-81
2023/03/10 05:07:05;;;;;;;;;;;;;;;6.78;84.44;94874.25;109111;1266;24218;-81
2023/03/10 05:09:36;;;;;;;;;;;;;;;6.74;84.22;94873.32;109155;1273;22489;-81
2023/03/10 05:12:06;;;;;;;;;;;;;;;6.74;84.22;94872.80;109104;1274;22489;-81
2023/03/10 05:14:36;;;;;;;;;;;;;;;6.84;84.22;94866.55;109014;1274;60627;-80
2023/03/10 05:17:05;;;;;;;;;;;;;;;6.98;83.81;94869.17;109068;1270;23260;-81
2023/03/10 05:19:35;;;;;;;;;;;;;;;7.04;83.37;94875.02;109083;1271;23838;-81
2023/03/10 05:22:05;;;;;;;;;;;;;;;7.07;83.19;94872.52;109089;1274;22485;-81
2023/03/10 05:24:36;;;;;;;;;;;;;;;7.18;83.14;94869.61;109069;1270;22501;-81
2023/03/10 05:27:07;;;;;;;;;;;;;;;7.52;82.57;94863.80;109093;1274;25213;-82
2023/03/10 05:29:37;;;;;;;;;;;;;;;7.96;81.65;94864.29;109082;1272;22545;-81
2023/03/10 05:32:08;;;;;;;;;;;;;;;8.39;80.41;94855.30;109090;1272;22544;-82
2023/03/10 05:34:37;;;;;;;;;;;;;;;8.73;78.40;94862.15;109062;1274;22506;-81
2023/03/10 05:37:07;;;;;;;;;;;;;;;9.02;77.04;94858.17;109078;1273;22493;-81
2023/03/10 05:39:36;;;;;;;;;;;;;;;9.31;75.91;94854.84;109062;1274;25322;-81
2023/03/10 05:42:06;;;;;;;;;;;;;;;9.57;75.54;94853.59;109055;1274;23769;-81
2023/03/10 05:44:36;;;;;;;;;;;;;;;9.92;75.04;94850.86;109012;1273;33442;-81
2023/03/10 05:47:06;;;;;;;;;;;;;;;10.29;74.28;94843.28;109072;1274;22499;-81
2023/03/10 05:49:36;;;;;;;;;;;;;;;10.68;73.16;94846.67;109076;1272;22495;-82
2023/03/10 05:52:05;;;;;;;;;;;;;;;10.89;70.78;94842.64;109070;1271;22553;-81
2023/03/10 05:54:36;;;;;;;;;;;;;;;11.07;70.22;94838.85;109070;1272;22500;-81
2023/03/10 05:57:05;;;;;;;;;;;;;;;11.13;69.88;94838.09;109091;1269;22500;-81
2023/03/10 05:59:35;;;;;;;;;;;;;;;11.43;68.45;94831.21;109092;1273;24330;-80
2023/03/10 06:02:04;;;;;;;;;;;;;;;11.69;67.11;94833.83;109092;1272;24208;-81
2023/03/10 06:04:34;;;;;;;;;;;;;;;11.93;66.02;94830.17;109072;1270;23270;-80
2023/03/10 06:07:03;;;;;;;;;;;;;;;12.25;65.13;94833.95;109053;1274;22503;-81
2023/03/10 06:09:33;;;;;;;;;;;;;;;12.50;63.81;94830.46;109060;1274;22967;-80
2023/03/10 06:12:02;;;;;;;;;;;;;;;12.52;63.19;94829.16;109087;1274;23769;-81
2023/03/10 06:14:32;;;;;;;;;;;;;;;12.28;62.28;94829.18;109066;1274;24748;-80
2023/03/10 06:17:01;;;;;;;;;;;;;;;12.16;62.48;94825.63;109092;1273;22820;-81
2023/03/10 06:19:31;;;;;;;;;;;;;;;11.95;60.90;94815.23;109072;1274;23738;-81
2023/03/10 06:22:00;;;;;;;;;;;;;;;11.60;60.93;94815.25;109090;1274;22446;-81
2023/03/10 06:24:30;;;;;;;;;;;;;;;11.33;61.70;94821.77;109056;1269;22526;-80
2023/03/10 06:26:59;;;;;;;;;;;;;;;11.43;62.28;94813.39;109084;1271;22483;-81
2023/03/10 06:29:29;;;;;;;;;;;;;;;11.69;62.70;94812.39;109071;1274;23338;-80
2023/03/10 06:31:58;;;;;;;;;;;;;;;12.04;61.85;94811.33;109064;1273;23843;-80
2023/03/10 06:34:28;;;;;;;;;;;;;;;12.40;61.21;94800.77;109055;1274;23654;-80
2023/03/10 06:36:57;;;;;;;;;;;;;;;12.47;58.83;94798.96;109035;1269;22520;-80
2023/03/10 06:39:28;;;;;;;;;;;;;;;12.42;59.15;94795.40;109089;1272;22534;-81
2023/03/10 06:41:57;;;;;;;;;;;;;;;12.15;58.69;94796.60;109078;1274;25161;-80
2023/03/10 06:44:27;;;;;;;;;;;;;;;11.82;58.52;94805.01;109017;1274;22482;-80
2023/03/10 06:46:57;;;;;;;;;;;;;;;12.08;59.64;94792.12;109083;1274;24313;-80
2023/03/10 06:49:30;;;;;;;;;;;;;;;12.41;58.76;94791.85;109062;1274;23838;-80
2023/03/10 06:51:59;;;;;;;;;;;;;;;12.61;58.38;94797.52;109071;1273;22519;-80
2023/03/10 06:54:29;;;;;;;;;;;;;;;12.89;58.60;94800.41;109054;1274;22778;-80
2023/03/10 06:56:58;;;;;;;;;;;;;;;13.64;58.27;94781.63;109036;1269;23911;-79
2023/03/10 06:59:31;;;;;;;;;;;;;;;14.01;55.33;94773.64;109142;1271;24279;-80
2023/03/10 07:02:00;;;;;;;;;;;;;;;14.26;54.65;94772.11;109080;1270;22918;-80
2023/03/10 07:04:30;;;;;;;;;;;;;;;14.91;54.03;94766.35;109022;1271;41497;-80
2023/03/10 07:07:02;;;;;;;;;;;;;;;15.66;54.83;94753.97;109078;1274;22560;-81
2023/03/10 07:09:31;;;;;;;;;;;;;;;16.28;53.15;94754.39;109064;1274;22492;-80
2023/03/10 07:12:00;;;;;;;;;;;;;;;17.21;51.96;94758.69;109112;1274;22746;-81
2023/03/10 07:14:30;;;;;;;;;;;;;;;17.10;47.84;94759.57;109060;1274;22503;-81
2023/03/10 07:16:59;;;;;;;;;;;;;;;16.81;46.25;94747.81;109109;1274;23826;-81
2023/03/10 07:19:28;;;;;;;;;;;;;;;16.34;46.25;94746.14;109082;1272;22548;-80
2023/03/10 07:21:58;;;;;;;;;;;;;;;16.39;47.25;94752.04;109079;1270;22509;-81
2023/03/10 07:24:28;;;;;;;;;;;;;;;16.19;47.40;94754.09;109092;1274;22419;-81
2023/03/10 07:26:58;;;;;;;;;;;;;;;15.22;48.19;94748.74;109086;1274;22511;-81
2023/03/10 07:29:28;;;;;;;;;;;;;;;14.69;49.11;94743.66;109074;1274;22511;-81
2023/03/10 07:31:57;;;;;;;;;;;;;;;15.37;49.64;94736.36;109063;1274;22533;-80
2023/03/10 07:34:26;;;;;;;;;;;;;;;16.12;48.96;94735.59;109061;1274;25233;-80
2023/03/10 07:36:56;;;;;;;;;;;;;;;15.79;49.01;94729.17;109087;1274;22795;-80
2023/03/10 07:39:25;;;;;;;;;;;;;;;15.63;48.78;94730.20;109058;1274;22511;-80
2023/03/10 07:41:55;;;;;;;;;;;;;;;16.43;48.72;94726.95;109018;1274;22524;-80
2023/03/10 07:44:24;;;;;;;;;;;;;;;17.39;47.04;94731.55;109073;1274;22575;-80
2023/03/10 07:46:54;;;;;;;;;;;;;;;18.45;44.79;94721.84;109052;1274;22492;-81
2023/03/10 07:49:23;;;;;;;;;;;;;;;19.00;43.77;94717.08;109091;1273;22775;-80
2023/03/10 07:51:53;;;;;;;;;;;;;;;19.82;44.48;94712.83;109104;1270;22757;-80
2023/03/10 07:54:22;;;;;;;;;;;;;;;20.77;42.57;94710.29;109068;1274;22478;-81
2023/03/10 07:56:52;;;;;;;;;;;;;;;20.93;40.09;94703.77;109058;1270;22493;-81
2023/03/10 07:59:21;;;;;;;;;;;;;;;21.04;38.99;94703.97;109078;1274;25065;-80
2023/03/10 08:01:51;;;;;;;;;;;;;;;20.97;40.04;94702.76;109078;1270;22867;-80
2023/03/10 08:04:20;;;;;;;;;;;;;;;21.58;39.60;94702.09;109044;1274;37205;-80
2023/03/10 08:06:50;;;;;;;;;;;;;;;21.62;38.75;94698.06;109074;1267;22523;-80
2023/03/10 08:09:23;;;;;;;;;;;;;;;21.55;36.01;94690.09;109078;1270;25236;-81
2023/03/10 08:11:55;;;;;;;;;;;;;;;21.26;37.03;94686.63;109060;1274;23650;-80
2023/03/10 08:14:25;;;;;;;;;;;;;;;21.37;37.24;94684.73;109008;1267;38813;-80
2023/03/10 08:16:55;;;;;;;;;;;;;;;21.54;38.57;94684.48;109073;1274;22556;-81
2023/03/10 08:19:25;;;;;;;;;;;;;;;22.15;37.36;94683.11;109042;1270;22513;-80
2023/03/10 08:21:56;;;;;;;;;;;;;;;22.32;36.04;94673.33;109049;1270;23836;-79
2023/03/10 08:24:25;;;;;;;;;;;;;;;21.58;34.85;94675.97;109061;1274;22698;-80
2023/03/10 08:26:55;;;;;;;;;;;;;;;20.85;34.97;94682.02;109055;1274;24423;-80
2023/03/10 08:29:25;;;;;;;;;;;;;;;20.42;36.21;94683.92;109067;1274;22496;-80
2023/03/10 08:31:54;;;;;;;;;;;;;;;19.77;36.67;94677.49;109094;1273;22496;-80
2023/03/10 08:34:23;;;;;;;;;;;;;;;19.51;37.28;94675.06;109046;1263;22556;-80
2023/03/10 08:36:53;;;;;;;;;;;;;;;19.66;37.01;94669.04;109066;1269;25245;-80
2023/03/10 08:39:23;;;;;;;;;;;;;;;19.55;37.06;94669.33;109089;1274;22647;-79
2023/03/10 08:41:52;;;;;;;;;;;;;;;20.06;37.73;94668.57;109086;1270;22716;-79
2023/03/10 08:44:22;;;;;;;;;;;;;;;20.23;36.73;94663.88;108980;1275;36449;-79
2023/03/10 08:46:51;;;;;;;;;;;;;;;19.36;36.62;94667.52;109073;1270;25214;-80
2023/03/10 08:49:21;;;;;;;;;;;;;;;18.58;38.11;94673.52;109024;1267;22520;-79
2023/03/10 08:51:50;;;;;;;;;;;;;;;18.29;37.99;94671.45;109067;1270;23233;-80
2023/03/10 08:54:21;;;;;;;;;;;;;;;17.51;38.72;94673.91;109018;1274;22490;-79
2023/03/10 08:56:51;;;;;;;;;;;;;;;16.67;39.37;94671.39;109080;1273;23121;-79
2023/03/10 08:59:20;;;;;;;;;;;;;;;15.81;40.39;94672.56;109068;1274;22646;-79
2023/03/10 09:01:50;;;;;;;;;;;;;;;15.27;41.60;94661.42;109112;1273;22497;-80
2023/03/10 09:04:19;;;;;;;;;;;;;;;15.01;42.26;94670.95;109003;1274;24247;-79
2023/03/10 09:06:49;;;;;;;;;;;;;;;15.17;42.28;94665.23;109050;1273;22495;-79
2023/03/10 09:09:18;;;;;;;;;;;;;;;15.12;43.21;94663.23;109059;1273;22552;-79
2023/03/10 09:11:47;;;;;;;;;;;;;;;15.23;43.17;94654.96;109059;1274;22628;-79
2023/03/10 09:14:17;;;;;;;;;;;;;;;15.43;44.18;94662.46;109043;1274;25422;-79
2023/03/10 09:16:47;;;;;;;;;;;;;;;15.58;43.82;94657.39;109047;1274;22502;-79
2023/03/10 09:19:16;;;;;;;;;;;;;;;15.48;43.47;94656.83;109090;1273;24183;-79
2023/03/10 09:21:46;;;;;;;;;;;;;;;15.39;43.28;94644.69;109040;1274;22496;-78
2023/03/10 09:24:16;;;;;;;;;;;;;;;15.06;43.13;94623.54;109017;1274;41033;-79
2023/03/10 09:26:46;;;;;;;;;;;;;;;14.99;44.17;94657.88;109052;1274;23339;-79
2023/03/10 09:29:16;;;;;;;;;;;;;;;15.11;44.41;94643.02;109079;1274;25287;-78
2023/03/10 09:31:47;;;;;;;;;;;;;;;15.15;44.83;94656.41;109042;1274;22522;-79
2023/03/10 09:34:16;;;;;;;;;;;;;;;15.15;45.15;94644.29;109043;1273;22504;-78
2023/03/10 09:36:46;;;;;;;;;;;;;;;15.21;45.57;94653.56;109039;1274;22556;-78
2023/03/10 09:39:16;;;;;;;;;;;;;;;15.12;44.76;94640.20;109072;1274;22569;-78
2023/03/10 09:42:01;;;;;;;;;;;;;;;15.01;44.97;94654.42;109103;1273;24244;-78
2023/03/10 09:44:41;;;;;;;;;;;;;;;15.20;45.28;94646.90;108996;1273;23636;-78
2023/03/10 09:47:28;;;;;;;;;;;;;;;15.33;45.04;94648.40;109058;1271;22503;-78
2023/03/10 09:50:11;;;;;;;;;;;;;;;15.53;45.31;94652.70;109067;1274;23791;-79
2023/03/10 09:52:45;;;;;;;;;;;;;;;15.56;43.85;94647.65;109051;1274;25432;-78
2023/03/10 09:55:21;;;;;;;;;;;;;;;15.58;44.54;94650.89;109058;1274;31295;-78
2023/03/10 09:57:53;;;;;;;;;;;;;;;15.61;44.51;94647.84;109049;1273;22507;-79
2023/03/10 10:00:24;;;;;;;;;;;;;;;15.67;44.52;94652.96;109031;1273;24298;-78
2023/03/10 10:03:02;;;;;;;;;;;;;;;15.68;44.13;94644.59;109031;1267;25909;-79
2023/03/10 10:05:34;;;;;;;;;;;;;;;15.62;44.26;94637.39;109048;1273;23212;-79
2023/03/10 10:08:06;;;;;;;;;;;;;;;15.60;44.76;94642.85;109038;1274;23161;-78
2023/03/10 10:10:38;;;;;;;;;;;;;;;15.86;45.36;94634.93;109054;1274;22579;-78
2023/03/10 10:13:12;;;;;;;;;;;;;;;15.93;44.09;94629.60;109051;1273;22508;-78
2023/03/10 10:15:44;;;;;;;;;;;;;;;15.89;44.52;94637.80;109073;1267;24536;-78
2023/03/10 10:18:20;;;;;;;;;;;;;;;16.07;44.69;94626.98;109141;1267;22541;-79
2023/03/10 10:20:57;;;;;;;;;;;;;;;16.22;44.27;94632.84;109048;1267;22621;-80
2023/03/10 10:23:29;;;;;;;;;;;;;;;16.31;43.53;94628.60;109010;1268;22686;-80
2023/03/10 10:26:01;;;;;;;;;;;;;;;16.39;42.82;94624.42;109054;1273;24320;-79
2023/03/10 10:28:36;;;;;;;;;;;;;;;16.35;42.57;94624.61;109112;1273;22442;-80
2023/03/10 10:31:15;;;;;;;;;;;;;;;16.39;42.48;94615.55;109039;1273;22568;-79
2023/03/10 10:33:55;;;;;;;;;;;;;;;16.37;42.23;94597.20;109091;1273;22576;-81
2023/03/10 10:36:27;;;;;;;;;;;;;;;16.34;41.89;94607.71;109014;1273;24213;-79
2023/03/10 10:38:57;;;;;;;;;;;;;;;16.32;41.82;94614.86;109052;1274;22488;-79
2023/03/10 10:41:29;;;;;;;;;;;;;;;16.34;42.03;94599.07;109033;1273;23784;-80
2023/03/10 10:44:00;;;;;;;;;;;;;;;16.40;41.62;94583.55;109018;1274;22508;-80
2023/03/10 10:46:31;;;;;;;;;;;;;;;16.35;41.96;94581.06;109018;1274;22482;-79
2023/03/10 10:49:02;;;;;;;;;;;;;;;16.35;41.79;94578.14;109073;1270;24314;-79
2023/03/10 10:51:34;;;;;;;;;;;;;;;16.34;42.63;94574.09;109055;1273;22453;-80
2023/03/10 10:54:06;;;;;;;;;;;;;;;16.29;41.93;94568.98;109033;1273;23580;-80
2023/03/10 10:56:36;;;;;;;;;;;;;;;16.24;42.57;94573.58;109062;1273;22505;-78
2023/03/10 10:59:09;;;;;;;;;;;;;;;16.31;42.47;94573.13;109041;1273;22485;-79
2023/03/10 11:01:49;;;;;;;;;;;;;;;16.35;42.33;94562.11;109075;1274;22557;-80
2023/03/10 11:04:19;;;;;;;;;;;;;;;16.30;42.43;94579.38;109036;1274;47569;-79
2023/03/10 11:06:49;;;;;;;;;;;;;;;16.39;42.76;94563.83;109060;1273;22506;-79
2023/03/10 11:09:20;;;;;;;;;;;;;;;16.44;42.55;94552.03;109078;1267;22492;-79
2023/03/10 11:12:00;;;;;;;;;;;;;;;16.43;42.77;94561.04;109029;1274;22964;-79
2023/03/10 11:14:41;;;;;;;;;;;;;;;16.42;42.73;94553.47;109022;1274;22475;-78
2023/03/10 11:17:14;;;;;;;;;;;;;;;16.28;42.97;94542.39;109082;1273;22812;-78
2023/03/10 11:19:51;;;;;;;;;;;;;;;16.38;43.77;94540.13;109055;1273;22685;-78
2023/03/10 11:22:29;;;;;;;;;;;;;;;16.49;43.22;94538.50;109043;1273;22492;-78
2023/03/10 11:25:01;;;;;;;;;;;;;;;16.59;43.73;94530.65;109056;1273;22431;-79
2023/03/10 11:27:40;;;;;;;;;;;;;;;16.68;42.75;94531.29;109056;1270;22525;-78
2023/03/10 11:30:13;;;;;;;;;;;;;;;16.66;42.96;94529.51;109045;1273;24283;-78
2023/03/10 11:32:51;;;;;;;;;;;;;;;16.58;42.45;94523.77;109058;1273;22540;-78
2023/03/10 11:35:25;;;;;;;;;;;;;;;16.42;42.88;94513.89;109054;1273;22523;-78
2023/03/10 11:38:01;;;;;;;;;;;;;;;16.51;43.43;94520.86;109059;1267;23952;-78
2023/03/10 11:40:38;;;;;;;;;;;;;;;16.70;43.47;94521.76;109081;1267;22569;-79
2023/03/10 11:43:12;;;;;;;;;;;;;;;16.61;42.59;94520.06;109031;1273;25172;-78
2023/03/10 11:45:47;;;;;;;;;;;;;;;16.37;42.67;94508.34;109020;1267;22561;-78
2023/03/10 11:48:26;;;;;;;;;;;;;;;16.30;43.49;94506.58;109041;1274;23980;-79
2023/03/10 11:50:58;;;;;;;;;;;;;;;16.42;43.38;94507.39;109046;1273;24360;-79
2023/03/10 11:53:32;;;;;;;;;;;;;;;16.27;42.86;94487.91;109086;1273;22607;-79
2023/03/10 11:56:02;;;;;;;;;;;;;;;15.95;43.48;94481.59;109093;1274;22488;-78
2023/03/10 11:58:39;;;;;;;;;;;;;;;15.91;44.25;94486.58;109006;1269;23497;-78
2023/03/10 12:01:10;;;;;;;;;;;;;;;16.11;43.95;94487.13;109041;1273;22437;-79
2023/03/10 12:03:43;;;;;;;;;;;;;;;16.30;43.26;94481.22;109061;1273;22499;-80
2023/03/10 12:06:16;;;;;;;;;;;;;;;16.38;43.40;94476.34;109043;1262;22501;-78
2023/03/10 12:08:46;;;;;;;;;;;;;;;16.52;43.50;94471.05;109071;1268;22440;-78
2023/03/10 12:11:20;;;;;;;;;;;;;;;16.66;43.01;94470.34;109071;1267;22663;-79
2023/03/10 12:13:51;;;;;;;;;;;;;;;16.70;43.14;94466.42;109096;1273;35641;-78
2023/03/10 12:16:23;;;;;;;;;;;;;;;16.63;42.95;94458.23;109064;1273;24061;-78
2023/03/10 12:18:53;;;;;;;;;;;;;;;16.61;43.90;94468.98;109089;1274;22559;-78
2023/03/10 12:21:24;;;;;;;;;;;;;;;16.79;44.35;94463.60;109050;1273;22465;-78
2023/03/10 12:23:59;;;;;;;;;;;;;;;16.94;43.91;94460.35;109028;1273;22505;-78
2023/03/10 12:26:48;;;;;;;;;;;;;;;16.89;43.67;94448.70;109048;1273;23330;-78
2023/03/10 12:29:32;;;;;;;;;;;;;;;16.82;42.99;94457.50;109033;1267;23196;-78
2023/03/10 12:32:01;;;;;;;;;;;;;;;16.82;43.50;94467.60;109086;1267;22499;-80
2023/03/10 12:34:32;;;;;;;;;;;;;;;16.84;42.79;94461.80;108998;1268;51006;-78
2023/03/10 12:37:06;;;;;;;;;;;;;;;16.85;42.90;94450.57;109003;1267;24218;-78
2023/03/10 12:39:40;;;;;;;;;;;;;;;16.92;41.71;94442.15;109082;1273;22495;-78
2023/03/10 12:42:30;;;;;;;;;;;;;;;16.95;42.47;94449.20;109042;1267;24200;-78
2023/03/10 12:45:08;;;;;;;;;;;;;;;17.01;41.96;94443.27;109039;1274;23840;-78
2023/03/10 12:47:47;;;;;;;;;;;;;;;17.06;41.78;94434.37;109046;1270;22520;-78
2023/03/10 12:50:21;;;;;;;;;;;;;;;16.91;41.32;94428.36;109040;1274;22534;-78
2023/03/10 12:52:54;;;;;;;;;;;;;;;16.83;42.15;94429.68;109137;1267;25395;-78
2023/03/10 12:55:24;;;;;;;;;;;;;;;16.86;42.09;94437.88;109053;1273;22463;-79
2023/03/10 12:58:04;;;;;;;;;;;;;;;16.88;42.10;94440.88;109047;1273;22522;-78
2023/03/10 13:00:44;;;;;;;;;;;;;;;16.93;41.69;94437.88;109081;1266;23797;-78